Vano — SBNM — position and weather

sailwx.info

Track history (hours):
 
Tides and Currents Weather Stations Pressure Air Temp Water Temp Dewpoint Dewpoint Depression Visibility Wind Speed Wind Dir Waves Ship Positions

Vano

Last reported at 2016-May-04 17:20 UTC. Time now 2016-May-05 01:05 UTC.
Position N 59°23' E 018°20'.

Length 38 m; draft 1.8 m.

Type: Passenger vessel. MMSI: 265520400.

Date/timePositionNaut miles runAvg speedWind from/ knotsBaromVisibWave heightAir tempDewpointWater temp
2016-May-04 17:20N 59°23' E 018°20'810.8
2016-May-04 16:34N 59°19' E 018°05'0 0.5
2016-May-04 15:33N 59°20' E 018°05'0 0.0
2016-May-04 14:33N 59°20' E 018°05'8 1.2
2016-May-04 07:20N 59°23' E 018°20'810.8
2016-May-04 06:33N 59°19' E 018°05'0 0.3
2016-May-04 05:33N 59°20' E 018°04'0 0.0
2016-May-04 04:33N 59°20' E 018°04'0 0.0
2016-May-04 03:33N 59°20' E 018°04'0 0.0
2016-May-04 02:34N 59°20' E 018°04'0 0.0
2016-May-04 01:34N 59°20' E 018°04'0 0.0
2016-May-04 00:33N 59°20' E 018°04'0 0.0
2016-May-03 23:33N 59°20' E 018°04'0 0.0
2016-May-03 22:33N 59°20' E 018°04'0 0.0
2016-May-03 21:34N 59°20' E 018°04'0 0.0
2016-May-03 20:33N 59°20' E 018°04'0 0.0
2016-May-03 19:34N 59°20' E 018°04'0 0.0
2016-May-03 18:33N 59°20' E 018°04'0 0.0
2016-May-03 17:33N 59°20' E 018°04'0 0.0
2016-May-03 16:33N 59°20' E 018°04'0 0.0
2016-May-03 15:33N 59°20' E 018°04'0 0.0
2016-May-03 14:34N 59°20' E 018°04'0 0.0
2016-May-03 13:33N 59°20' E 018°05'0 0.0
2016-May-03 12:33N 59°20' E 018°04'0 0.0
2016-May-03 11:34N 59°20' E 018°04'0 0.0
2016-May-03 10:33N 59°20' E 018°04'0 0.0
2016-May-03 09:33N 59°20' E 018°04'0 0.0
2016-May-03 08:33N 59°20' E 018°04'0 0.0
2016-May-03 07:33N 59°20' E 018°04'0 0.0
2016-May-03 06:33N 59°20' E 018°04'4 3.8
2016-May-03 05:33N 59°20' E 018°12'5 0.4
2016-May-02 16:29N 59°23' E 018°20'9 9.0
2016-May-02 15:33N 59°19' E 018°05'0 0.4
2016-May-02 14:33N 59°20' E 018°05'8 5.7
2016-May-02 13:14N 59°22' E 018°18'4 0.7
2016-May-02 07:23N 59°20' E 018°12'4 4.6
2016-May-02 06:33N 59°20' E 018°04'0 0.0
2016-May-02 05:25N 59°20' E 018°04'0 0.0
2016-May-02 04:34N 59°20' E 018°04'0 0.0
2016-May-02 03:33N 59°20' E 018°04'0 0.0
2016-May-02 02:34N 59°20' E 018°04'0 0.0
2016-May-02 01:34N 59°20' E 018°04'0 0.0
2016-May-02 00:34N 59°20' E 018°04'0 0.0
2016-May-01 23:33N 59°20' E 018°04'0 0.0
2016-May-01 22:34N 59°20' E 018°04'0 0.0
2016-May-01 21:34N 59°20' E 018°04'0 0.0
2016-May-01 20:33N 59°20' E 018°04'0 0.0
2016-May-01 19:33N 59°20' E 018°04'0 0.0
2016-May-01 18:33N 59°20' E 018°04'0 0.0
2016-May-01 17:34N 59°20' E 018°04'0 0.0
2016-May-01 16:33N 59°20' E 018°04'0 0.0
2016-May-01 15:34N 59°20' E 018°04'0 0.0
2016-May-01 14:34N 59°20' E 018°04'0 0.0
2016-May-01 13:34N 59°20' E 018°04'0 0.0
2016-May-01 12:34N 59°20' E 018°04'0 0.0
2016-May-01 11:34N 59°20' E 018°04'0 0.0
2016-May-01 10:34N 59°20' E 018°04'0 0.0
2016-May-01 09:33N 59°20' E 018°04'0 0.0
2016-May-01 08:34N 59°20' E 018°04'0 0.0
2016-May-01 07:34N 59°20' E 018°04'0 0.0
2016-May-01 06:33N 59°20' E 018°04'0 0.0
2016-May-01 05:33N 59°20' E 018°04'0 0.0
2016-May-01 04:33N 59°20' E 018°04'0 0.0
2016-May-01 03:34N 59°20' E 018°04'0 0.0
2016-May-01 02:34N 59°20' E 018°04'0 0.0
2016-May-01 01:34N 59°20' E 018°04'0 0.0
2016-May-01 00:33N 59°20' E 018°04'0 0.0
2016-Apr-30 23:34N 59°20' E 018°04'0 0.0
2016-Apr-30 22:34N 59°20' E 018°04'0 0.0
2016-Apr-30 21:34N 59°20' E 018°04'0 0.0
2016-Apr-30 20:34N 59°20' E 018°04'0 0.0
2016-Apr-30 19:33N 59°20' E 018°04'0 0.0
2016-Apr-30 18:33N 59°20' E 018°04'0 0.0
2016-Apr-30 17:34N 59°20' E 018°04'0 0.0
2016-Apr-30 16:33N 59°20' E 018°04'0 0.0
2016-Apr-30 15:34N 59°20' E 018°04'0 0.0
2016-Apr-30 14:33N 59°20' E 018°04'0 0.0
2016-Apr-30 13:33N 59°20' E 018°04'0 0.0
2016-Apr-30 12:33N 59°20' E 018°04'0 0.0
2016-Apr-30 11:34N 59°20' E 018°04'0 0.0
2016-Apr-30 10:33N 59°20' E 018°04'0 0.0
2016-Apr-30 09:34N 59°20' E 018°04'0 0.0
2016-Apr-30 08:34N 59°20' E 018°04'0 0.0
2016-Apr-30 07:33N 59°20' E 018°04'0 0.0
2016-Apr-30 06:34N 59°20' E 018°04'0 0.0
2016-Apr-30 05:33N 59°20' E 018°04'0 0.0
2016-Apr-30 04:34N 59°20' E 018°04'0 0.0
2016-Apr-30 03:34N 59°20' E 018°04'0 0.0
2016-Apr-30 02:33N 59°20' E 018°04'0 0.0
2016-Apr-30 01:33N 59°20' E 018°04'0 0.0
2016-Apr-30 00:34N 59°20' E 018°04'0 0.0
2016-Apr-29 23:33N 59°20' E 018°04'0 0.0
2016-Apr-29 22:33N 59°20' E 018°04'0 0.0
2016-Apr-29 21:33N 59°20' E 018°04'0 0.0
2016-Apr-29 20:34N 59°20' E 018°04'0 0.0
2016-Apr-29 19:33N 59°20' E 018°04'0 0.0
2016-Apr-29 18:34N 59°20' E 018°04'0 0.0
2016-Apr-29 17:34N 59°20' E 018°04'0 0.0
2016-Apr-29 16:34N 59°20' E 018°04'0 0.0
2016-Apr-29 15:34N 59°20' E 018°04'0 0.0
2016-Apr-29 14:33N 59°20' E 018°04'0 0.0
2016-Apr-29 13:33N 59°20' E 018°04'0 0.0
2016-Apr-29 12:33N 59°20' E 018°04'0 0.0
2016-Apr-29 11:33N 59°20' E 018°04'0 0.0
2016-Apr-29 10:33N 59°20' E 018°04'0 0.0
2016-Apr-29 09:33N 59°20' E 018°04'0 0.0
2016-Apr-29 08:33N 59°20' E 018°04'0 0.0
2016-Apr-29 07:30N 59°20' E 018°04'0 0.0
2016-Apr-29 06:33N 59°20' E 018°04'0 0.0
2016-Apr-29 05:33N 59°20' E 018°04'0 0.0
2016-Apr-29 04:34N 59°20' E 018°04'0 0.0
2016-Apr-29 03:34N 59°20' E 018°04'0 0.0
2016-Apr-29 02:34N 59°20' E 018°04'0 0.0
2016-Apr-29 01:34N 59°20' E 018°04'0 0.0
2016-Apr-29 00:34N 59°20' E 018°04'0 0.0
2016-Apr-28 23:33N 59°20' E 018°04'0 0.0
2016-Apr-28 22:32N 59°20' E 018°04'0 0.0
2016-Apr-28 21:33N 59°20' E 018°04'0 0.0
2016-Apr-28 20:34N 59°20' E 018°04'0 0.0
2016-Apr-28 19:33N 59°20' E 018°04'0 0.0
2016-Apr-28 18:34N 59°20' E 018°04'0 0.0
2016-Apr-28 17:33N 59°20' E 018°04'0 0.0
2016-Apr-28 16:34N 59°20' E 018°04'0 0.0
2016-Apr-28 15:34N 59°20' E 018°04'0 0.0
2016-Apr-28 14:34N 59°20' E 018°04'0 0.0
2016-Apr-28 13:33N 59°20' E 018°04'0 0.0
2016-Apr-28 12:33N 59°20' E 018°04'0 0.0
2016-Apr-28 11:34N 59°20' E 018°04'0 0.0
2016-Apr-28 10:33N 59°20' E 018°04'0 0.0
2016-Apr-28 09:33N 59°20' E 018°04'0 0.0
2016-Apr-28 08:34N 59°20' E 018°04'0 0.0
2016-Apr-28 07:33N 59°20' E 018°04'0 0.0
2016-Apr-28 06:34N 59°20' E 018°04'0 0.0
2016-Apr-28 05:33N 59°20' E 018°04'0 0.0
2016-Apr-28 02:32N 59°20' E 018°04'0 0.0
2016-Apr-28 01:12N 59°20' E 018°04'0 0.0
2016-Apr-28 00:34N 59°20' E 018°04'0 0.0
2016-Apr-27 23:34N 59°20' E 018°04'0 0.0
2016-Apr-27 22:34N 59°20' E 018°04'0 0.0
2016-Apr-27 21:34N 59°20' E 018°04'  
Track history (hours):
 
Tides and Currents Weather Stations Pressure Air Temp Water Temp Dewpoint Dewpoint Depression Visibility Wind Speed Wind Dir Waves Ship Positions

Vano

Last reported at 2016-May-04 17:20 UTC. Time now 2016-May-05 01:05 UTC.
Position N 59°23' E 018°20'.

Length 38 m; draft 1.8 m.

Type: Passenger vessel. MMSI: 265520400.

Date/timePositionNaut miles runAvg speedWind from/ knotsBaromVisibWave heightAir tempDewpointWater temp
2016-May-04 17:20N 59°23' E 018°20'810.8
2016-May-04 16:34N 59°19' E 018°05'0 0.5
2016-May-04 15:33N 59°20' E 018°05'0 0.0
2016-May-04 14:33N 59°20' E 018°05'8 1.2
2016-May-04 07:20N 59°23' E 018°20'810.8
2016-May-04 06:33N 59°19' E 018°05'0 0.3
2016-May-04 05:33N 59°20' E 018°04'0 0.0
2016-May-04 04:33N 59°20' E 018°04'0 0.0
2016-May-04 03:33N 59°20' E 018°04'0 0.0
2016-May-04 02:34N 59°20' E 018°04'0 0.0
2016-May-04 01:34N 59°20' E 018°04'0 0.0
2016-May-04 00:33N 59°20' E 018°04'0 0.0
2016-May-03 23:33N 59°20' E 018°04'0 0.0
2016-May-03 22:33N 59°20' E 018°04'0 0.0
2016-May-03 21:34N 59°20' E 018°04'0 0.0
2016-May-03 20:33N 59°20' E 018°04'0 0.0
2016-May-03 19:34N 59°20' E 018°04'0 0.0
2016-May-03 18:33N 59°20' E 018°04'0 0.0
2016-May-03 17:33N 59°20' E 018°04'0 0.0
2016-May-03 16:33N 59°20' E 018°04'0 0.0
2016-May-03 15:33N 59°20' E 018°04'0 0.0
2016-May-03 14:34N 59°20' E 018°04'0 0.0
2016-May-03 13:33N 59°20' E 018°05'0 0.0
2016-May-03 12:33N 59°20' E 018°04'0 0.0
2016-May-03 11:34N 59°20' E 018°04'0 0.0
2016-May-03 10:33N 59°20' E 018°04'0 0.0
2016-May-03 09:33N 59°20' E 018°04'0 0.0
2016-May-03 08:33N 59°20' E 018°04'0 0.0
2016-May-03 07:33N 59°20' E 018°04'0 0.0
2016-May-03 06:33N 59°20' E 018°04'4 3.8
2016-May-03 05:33N 59°20' E 018°12'5 0.4
2016-May-02 16:29N 59°23' E 018°20'9 9.0
2016-May-02 15:33N 59°19' E 018°05'0 0.4
2016-May-02 14:33N 59°20' E 018°05'8 5.7
2016-May-02 13:14N 59°22' E 018°18'4 0.7
2016-May-02 07:23N 59°20' E 018°12'4 4.6
2016-May-02 06:33N 59°20' E 018°04'0 0.0
2016-May-02 05:25N 59°20' E 018°04'0 0.0
2016-May-02 04:34N 59°20' E 018°04'0 0.0
2016-May-02 03:33N 59°20' E 018°04'0 0.0
2016-May-02 02:34N 59°20' E 018°04'0 0.0
2016-May-02 01:34N 59°20' E 018°04'0 0.0
2016-May-02 00:34N 59°20' E 018°04'0 0.0
2016-May-01 23:33N 59°20' E 018°04'0 0.0
2016-May-01 22:34N 59°20' E 018°04'0 0.0
2016-May-01 21:34N 59°20' E 018°04'0 0.0
2016-May-01 20:33N 59°20' E 018°04'0 0.0
2016-May-01 19:33N 59°20' E 018°04'0 0.0
2016-May-01 18:33N 59°20' E 018°04'0 0.0
2016-May-01 17:34N 59°20' E 018°04'0 0.0
2016-May-01 16:33N 59°20' E 018°04'0 0.0
2016-May-01 15:34N 59°20' E 018°04'0 0.0
2016-May-01 14:34N 59°20' E 018°04'0 0.0
2016-May-01 13:34N 59°20' E 018°04'0 0.0
2016-May-01 12:34N 59°20' E 018°04'0 0.0
2016-May-01 11:34N 59°20' E 018°04'0 0.0
2016-May-01 10:34N 59°20' E 018°04'0 0.0
2016-May-01 09:33N 59°20' E 018°04'0 0.0
2016-May-01 08:34N 59°20' E 018°04'0 0.0
2016-May-01 07:34N 59°20' E 018°04'0 0.0
2016-May-01 06:33N 59°20' E 018°04'0 0.0
2016-May-01 05:33N 59°20' E 018°04'0 0.0
2016-May-01 04:33N 59°20' E 018°04'0 0.0
2016-May-01 03:34N 59°20' E 018°04'0 0.0
2016-May-01 02:34N 59°20' E 018°04'0 0.0
2016-May-01 01:34N 59°20' E 018°04'0 0.0
2016-May-01 00:33N 59°20' E 018°04'0 0.0
2016-Apr-30 23:34N 59°20' E 018°04'0 0.0
2016-Apr-30 22:34N 59°20' E 018°04'0 0.0
2016-Apr-30 21:34N 59°20' E 018°04'0 0.0
2016-Apr-30 20:34N 59°20' E 018°04'0 0.0
2016-Apr-30 19:33N 59°20' E 018°04'0 0.0
2016-Apr-30 18:33N 59°20' E 018°04'0 0.0
2016-Apr-30 17:34N 59°20' E 018°04'0 0.0
2016-Apr-30 16:33N 59°20' E 018°04'0 0.0
2016-Apr-30 15:34N 59°20' E 018°04'0 0.0
2016-Apr-30 14:33N 59°20' E 018°04'0 0.0
2016-Apr-30 13:33N 59°20' E 018°04'0 0.0
2016-Apr-30 12:33N 59°20' E 018°04'0 0.0
2016-Apr-30 11:34N 59°20' E 018°04'0 0.0
2016-Apr-30 10:33N 59°20' E 018°04'0 0.0
2016-Apr-30 09:34N 59°20' E 018°04'0 0.0
2016-Apr-30 08:34N 59°20' E 018°04'0 0.0
2016-Apr-30 07:33N 59°20' E 018°04'0 0.0
2016-Apr-30 06:34N 59°20' E 018°04'0 0.0
2016-Apr-30 05:33N 59°20' E 018°04'0 0.0
2016-Apr-30 04:34N 59°20' E 018°04'0 0.0
2016-Apr-30 03:34N 59°20' E 018°04'0 0.0
2016-Apr-30 02:33N 59°20' E 018°04'0 0.0
2016-Apr-30 01:33N 59°20' E 018°04'0 0.0
2016-Apr-30 00:34N 59°20' E 018°04'0 0.0
2016-Apr-29 23:33N 59°20' E 018°04'0 0.0
2016-Apr-29 22:33N 59°20' E 018°04'0 0.0
2016-Apr-29 21:33N 59°20' E 018°04'0 0.0
2016-Apr-29 20:34N 59°20' E 018°04'0 0.0
2016-Apr-29 19:33N 59°20' E 018°04'0 0.0
2016-Apr-29 18:34N 59°20' E 018°04'0 0.0
2016-Apr-29 17:34N 59°20' E 018°04'0 0.0
2016-Apr-29 16:34N 59°20' E 018°04'0 0.0
2016-Apr-29 15:34N 59°20' E 018°04'0 0.0
2016-Apr-29 14:33N 59°20' E 018°04'0 0.0
2016-Apr-29 13:33N 59°20' E 018°04'0 0.0
2016-Apr-29 12:33N 59°20' E 018°04'0 0.0
2016-Apr-29 11:33N 59°20' E 018°04'0 0.0
2016-Apr-29 10:33N 59°20' E 018°04'0 0.0
2016-Apr-29 09:33N 59°20' E 018°04'0 0.0
2016-Apr-29 08:33N 59°20' E 018°04'0 0.0
2016-Apr-29 07:30N 59°20' E 018°04'0 0.0
2016-Apr-29 06:33N 59°20' E 018°04'0 0.0
2016-Apr-29 05:33N 59°20' E 018°04'0 0.0
2016-Apr-29 04:34N 59°20' E 018°04'0 0.0
2016-Apr-29 03:34N 59°20' E 018°04'0 0.0
2016-Apr-29 02:34N 59°20' E 018°04'0 0.0
2016-Apr-29 01:34N 59°20' E 018°04'0 0.0
2016-Apr-29 00:34N 59°20' E 018°04'0 0.0
2016-Apr-28 23:33N 59°20' E 018°04'0 0.0
2016-Apr-28 22:32N 59°20' E 018°04'0 0.0
2016-Apr-28 21:33N 59°20' E 018°04'0 0.0
2016-Apr-28 20:34N 59°20' E 018°04'0 0.0
2016-Apr-28 19:33N 59°20' E 018°04'0 0.0
2016-Apr-28 18:34N 59°20' E 018°04'0 0.0
2016-Apr-28 17:33N 59°20' E 018°04'0 0.0
2016-Apr-28 16:34N 59°20' E 018°04'0 0.0
2016-Apr-28 15:34N 59°20' E 018°04'0 0.0
2016-Apr-28 14:34N 59°20' E 018°04'0 0.0
2016-Apr-28 13:33N 59°20' E 018°04'0 0.0
2016-Apr-28 12:33N 59°20' E 018°04'0 0.0
2016-Apr-28 11:34N 59°20' E 018°04'0 0.0
2016-Apr-28 10:33N 59°20' E 018°04'0 0.0
2016-Apr-28 09:33N 59°20' E 018°04'0 0.0
2016-Apr-28 08:34N 59°20' E 018°04'0 0.0
2016-Apr-28 07:33N 59°20' E 018°04'0 0.0
2016-Apr-28 06:34N 59°20' E 018°04'0 0.0
2016-Apr-28 05:33N 59°20' E 018°04'0 0.0
2016-Apr-28 02:32N 59°20' E 018°04'0 0.0
2016-Apr-28 01:12N 59°20' E 018°04'0 0.0
2016-Apr-28 00:34N 59°20' E 018°04'0 0.0
2016-Apr-27 23:34N 59°20' E 018°04'0 0.0
2016-Apr-27 22:34N 59°20' E 018°04'0 0.0
2016-Apr-27 21:34N 59°20' E 018°04'  

Dump ship's entire track history